| time (UTC) | temp C | wind direction | speed KPH | gust KPH | rain 1hr cm | rain 24hr cm | rain mn cm | humidity % | barometer mb |
| 20260508125453 | 26 | 113 | 6.4 | 9.7 | 0.00 | 0.00 | 0.00 | 91 | 1014.6 |
| 20260508124953 | 26 | 68 | 3.2 | 3.2 | 0.00 | 0.00 | 0.00 | 91 | 1014.6 |
| 20260508124454 | 26 | 68 | 4.8 | 8.0 | 0.00 | 0.00 | 0.00 | 91 | 1014.2 |
| 20260508123954 | 26 | 68 | 8.0 | 12.9 | 0.00 | 0.00 | 0.00 | 93 | 1014.2 |
| 20260508123454 | 26 | 23 | 8.0 | 12.9 | 0.00 | 0.00 | 0.00 | 93 | 1014.2 |
| 20260508122953 | 26 | 68 | 4.8 | 6.4 | 0.00 | 0.00 | 0.00 | 93 | 1014.6 |
| 20260508122453 | 26 | 68 | 8.0 | 9.7 | 0.00 | 0.00 | 0.00 | 92 | 1014.6 |
| 20260508121954 | 27 | 45 | 12.9 | 14.5 | 0.00 | 0.00 | 0.00 | 91 | 1014.2 |
| 20260508121454 | 27 | 68 | 20.9 | 27.4 | 0.00 | 0.00 | 0.00 | 88 | 1014.2 |
| 20260508120953 | 28 | 90 | 9.7 | 11.3 | 0.00 | 0.00 | 0.00 | 86 | 1013.9 |
| 20260508120453 | 28 | 45 | 11.3 | 14.5 | 0.00 | 0.00 | 0.00 | 86 | 1014.2 |
| 20260508115953 | 28 | 90 | 6.4 | 8.0 | 0.00 | 0.00 | 0.00 | 87 | 1013.9 |
| 20260508115453 | 28 | 315 | 4.8 | 8.0 | 0.00 | 0.00 | 0.00 | 86 | 1013.9 |
| 20260508114953 | 28 | 45 | 12.9 | 12.9 | 0.00 | 0.00 | 0.00 | 86 | 1013.9 |
| 20260508114454 | 28 | 45 | 9.7 | 12.9 | 0.00 | 0.00 | 0.00 | 86 | 1013.5 |
| 20260508113955 | 28 | 68 | 8.0 | 16.1 | 0.00 | 0.00 | 0.00 | 85 | 1013.5 |
| 20260508113454 | 28 | 68 | 8.0 | 9.7 | 0.00 | 0.00 | 0.00 | 84 | 1013.2 |
| 20260508112954 | 28 | 45 | 9.7 | 11.3 | 0.00 | 0.00 | 0.00 | 84 | 1013.2 |
| 20260508112454 | 28 | 90 | 8.0 | 9.7 | 0.00 | 0.00 | 0.00 | 83 | 1013.5 |
| 20260508111953 | 28 | 68 | 11.3 | 16.1 | 0.00 | 0.00 | 0.00 | 84 | 1013.2 |
| 20260508111453 | 28 | 45 | 8.0 | 11.3 | 0.00 | 0.00 | 0.00 | 84 | 1012.9 |
| 20260508110953 | 28 | 90 | 11.3 | 17.7 | 0.00 | 0.00 | 0.00 | 84 | 1013.2 |
| 20260508110453 | 28 | 68 | 6.4 | 11.3 | 0.00 | 0.00 | 0.00 | 84 | 1013.2 |
| 20260508105953 | 28 | 68 | 8.0 | 11.3 | 0.00 | 0.00 | 0.00 | 83 | 1013.2 |
| 20260508105453 | 28 | 113 | 11.3 | 14.5 | 0.00 | 0.00 | 0.00 | 83 | 1012.9 |
| 20260508104953 | 28 | 45 | 9.7 | 12.9 | 0.00 | 0.00 | 0.00 | 83 | 1012.9 |
| 20260508104453 | 28 | 68 | 8.0 | 11.3 | 0.00 | 0.00 | 0.00 | 83 | 1012.9 |
| 20260508103953 | 28 | 68 | 8.0 | 8.0 | 0.00 | 0.00 | 0.00 | 82 | 1012.9 |
| 20260508103454 | 28 | 90 | 9.7 | 12.9 | 0.00 | 0.00 | 0.00 | 82 | 1012.9 |
| 20260508102953 | 28 | 45 | 8.0 | 11.3 | 0.00 | 0.00 | 0.00 | 82 | 1012.9 |
| 20260508102454 | 28 | 113 | 8.0 | 11.3 | 0.00 | 0.00 | 0.00 | 82 | 1012.5 |
| 20260508101953 | 28 | 23 | 8.0 | 9.7 | 0.00 | 0.00 | 0.00 | 81 | 1012.5 |
| 20260508101453 | 28 | 45 | 11.3 | 11.3 | 0.00 | 0.00 | 0.00 | 81 | 1012.5 |
| 20260508100954 | 28 | 68 | 8.0 | 8.0 | 0.00 | 0.00 | 0.00 | 80 | 1012.5 |
| 20260508100454 | 28 | 68 | 12.9 | 16.1 | 0.00 | 0.00 | 0.00 | 80 | 1012.5 |
| 20260508095953 | 28 | 68 | 14.5 | 19.3 | 0.00 | 0.00 | 0.00 | 80 | 1012.5 |
| 20260508095453 | 29 | 90 | 11.3 | 11.3 | 0.00 | 0.00 | 0.00 | 80 | 1012.2 |
| 20260508094954 | 29 | 68 | 12.9 | 12.9 | 0.00 | 0.00 | 0.00 | 80 | 1012.2 |
| 20260508094453 | 29 | 23 | 9.7 | 12.9 | 0.00 | 0.00 | 0.00 | 79 | 1011.9 |
| 20260508093953 | 29 | 68 | 14.5 | 16.1 | 0.00 | 0.00 | 0.00 | 79 | 1011.9 |
| 20260508093453 | 29 | 68 | 11.3 | 16.1 | 0.00 | 0.00 | 0.00 | 80 | 1011.9 |
| 20260508092953 | 29 | 68 | 14.5 | 16.1 | 0.00 | 0.00 | 0.00 | 80 | 1011.9 |
| 20260508092454 | 29 | 113 | 14.5 | 19.3 | 0.00 | 0.00 | 0.00 | 81 | 1011.9 |
| 20260508091954 | 29 | 90 | 11.3 | 16.1 | 0.00 | 0.00 | 0.00 | 80 | 1011.9 |
| 20260508091454 | 30 | 68 | 14.5 | 17.7 | 0.00 | 0.00 | 0.00 | 79 | 1011.5 |
| 20260508090953 | 30 | 68 | 12.9 | 19.3 | 0.00 | 0.00 | 0.00 | 78 | 1011.5 |
| 20260508090453 | 30 | 68 | 16.1 | 20.9 | 0.00 | 0.00 | 0.00 | 77 | 1011.5 |
| 20260508085953 | 30 | 68 | 12.9 | 16.1 | 0.00 | 0.00 | 0.00 | 77 | 1011.2 |
| 20260508085453 | 30 | 68 | 9.7 | 12.9 | 0.00 | 0.00 | 0.00 | 77 | 1011.2 |
| 20260508084954 | 30 | 45 | 16.1 | 20.9 | 0.00 | 0.00 | 0.00 | 77 | 1011.2 |
| 20260508084455 | 30 | 45 | 19.3 | 24.1 | 0.00 | 0.00 | 0.00 | 76 | 1011.2 |
| 20260508083953 | 30 | 68 | 20.9 | 27.4 | 0.00 | 0.00 | 0.00 | 76 | 1011.2 |
| 20260508083453 | 31 | 90 | 11.3 | 16.1 | 0.00 | 0.00 | 0.00 | 77 | 1011.2 |
| 20260508082953 | 31 | 68 | 17.7 | 20.9 | 0.00 | 0.00 | 0.00 | 75 | 1010.8 |
| 20260508082455 | 31 | 45 | 16.1 | 20.9 | 0.00 | 0.00 | 0.00 | 76 | 1010.8 |
| 20260508081953 | 31 | 68 | 14.5 | 19.3 | 0.00 | 0.00 | 0.00 | 74 | 1010.8 |
| 20260508081453 | 31 | 45 | 17.7 | 24.1 | 0.00 | 0.00 | 0.00 | 73 | 1011.2 |
| 20260508080953 | 31 | 68 | 14.5 | 19.3 | 0.00 | 0.00 | 0.00 | 71 | 1010.8 |
| 20260508080453 | 31 | 68 | 14.5 | 17.7 | 0.00 | 0.00 | 0.00 | 72 | 1011.2 |
| 20260508075953 | 31 | 45 | 14.5 | 27.4 | 0.00 | 0.00 | 0.00 | 70 | 1010.8 |
| 20260508075454 | 31 | 68 | 22.5 | 29.0 | 0.00 | 0.00 | 0.00 | 70 | 1010.8 |
| 20260508074953 | 31 | 68 | 14.5 | 19.3 | 0.00 | 0.00 | 0.00 | 72 | 1010.5 |
| 20260508074454 | 31 | 90 | 14.5 | 16.1 | 0.00 | 0.00 | 0.00 | 71 | 1010.8 |
| 20260508073954 | 32 | 68 | 16.1 | 20.9 | 0.00 | 0.00 | 0.00 | 71 | 1010.8 |
| 20260508073453 | 32 | 158 | 12.9 | 19.3 | 0.00 | 0.00 | 0.00 | 71 | 1010.8 |
| 20260508072953 | 32 | 113 | 8.0 | 12.9 | 0.00 | 0.00 | 0.00 | 71 | 1010.8 |
| 20260508072453 | 31 | 68 | 9.7 | 11.3 | 0.00 | 0.00 | 0.00 | 72 | 1010.8 |
| 20260508071953 | 31 | 68 | 9.7 | 11.3 | 0.00 | 0.00 | 0.00 | 73 | 1010.8 |
| 20260508071453 | 32 | 68 | 19.3 | 30.6 | 0.00 | 0.00 | 0.00 | 69 | 1010.8 |
| 20260508070953 | 33 | 68 | 9.7 | 14.5 | 0.00 | 0.00 | 0.00 | 68 | 1010.8 |
| 20260508070453 | 32 | 90 | 8.0 | 11.3 | 0.00 | 0.00 | 0.00 | 69 | 1010.8 |
| 20260508065953 | 32 | 23 | 20.9 | 27.4 | 0.00 | 0.00 | 0.00 | 69 | 1011.2 |
| 20260508065453 | 32 | 45 | 6.4 | 9.7 | 0.00 | 0.00 | 0.00 | 69 | 1010.8 |
| 20260508064953 | 32 | 113 | 17.7 | 20.9 | 0.00 | 0.00 | 0.00 | 68 | 1010.8 |
| 20260508064453 | 32 | 90 | 20.9 | 30.6 | 0.00 | 0.00 | 0.00 | 65 | 1010.8 |
| 20260508063958 | 33 | 68 | 17.7 | 24.1 | 0.00 | 0.00 | 0.00 | 64 | 1010.8 |
| 20260508063453 | 33 | 68 | 4.8 | 8.0 | 0.00 | 0.00 | 0.00 | 68 | 1010.8 |
| 20260508062953 | 32 | 90 | 12.9 | 16.1 | 0.00 | 0.00 | 0.00 | 67 | 1010.8 |
| 20260508062453 | 33 | 90 | 12.9 | 16.1 | 0.00 | 0.00 | 0.00 | 67 | 1010.8 |
| 20260508061954 | 33 | 68 | 11.3 | 17.7 | 0.00 | 0.00 | 0.00 | 65 | 1010.8 |
| 20260508061454 | 33 | 68 | 19.3 | 20.9 | 0.00 | 0.00 | 0.00 | 66 | 1011.2 |
| 20260508060954 | 33 | 45 | 11.3 | 12.9 | 0.00 | 0.00 | 0.00 | 65 | 1011.2 |
| 20260508060453 | 33 | 45 | 14.5 | 16.1 | 0.00 | 0.00 | 0.00 | 64 | 1011.2 |
| 20260508055953 | 33 | 68 | 14.5 | 20.9 | 0.00 | 0.00 | 0.00 | 65 | 1011.5 |
| 20260508055453 | 34 | 68 | 4.8 | 6.4 | 0.00 | 0.00 | 0.00 | 64 | 1011.2 |
| 20260508054953 | 33 | 23 | 6.4 | 8.0 | 0.00 | 0.00 | 0.00 | 66 | 1011.2 |
| 20260508054453 | 34 | 90 | 9.7 | 11.3 | 0.00 | 0.00 | 0.00 | 66 | 1011.2 |
| 20260508053955 | 33 | 90 | 12.9 | 16.1 | 0.00 | 0.00 | 0.00 | 65 | 1011.9 |
| 20260508053453 | 34 | 68 | 6.4 | 11.3 | 0.00 | 0.00 | 0.00 | 62 | 1011.9 |
| 20260508052953 | 33 | 45 | 12.9 | 16.1 | 0.00 | 0.00 | 0.00 | 65 | 1011.9 |
| 20260508052454 | 33 | 90 | 16.1 | 20.9 | 0.00 | 0.00 | 0.00 | 65 | 1011.9 |
| 20260508051956 | 33 | 68 | 8.0 | 11.3 | 0.00 | 0.00 | 0.00 | 65 | 1011.9 |
| 20260508051454 | 33 | 135 | 11.3 | 14.5 | 0.00 | 0.00 | 0.00 | 67 | 1011.9 |
| 20260508050953 | 33 | 68 | 11.3 | 14.5 | 0.00 | 0.00 | 0.00 | 65 | 1011.9 |
| 20260508050453 | 34 | 68 | 3.2 | 6.4 | 0.00 | 0.00 | 0.00 | 64 | 1012.2 |
| 20260508045953 | 33 | 68 | 8.0 | 9.7 | 0.00 | 0.00 | 0.00 | 63 | 1011.9 |
| 20260508045453 | 33 | 68 | 11.3 | 16.1 | 0.00 | 0.00 | 0.00 | 67 | 1012.2 |
| 20260508044953 | 33 | 45 | 14.5 | 22.5 | 0.00 | 0.00 | 0.00 | 67 | 1012.2 |
| 20260508044454 | 33 | 113 | 9.7 | 12.9 | 0.00 | 0.00 | 0.00 | 68 | 1012.5 |
| 20260508043953 | 33 | 68 | 14.5 | 16.1 | 0.00 | 0.00 | 0.00 | 69 | 1012.5 |
| 20260508043455 | 33 | 68 | 11.3 | 12.9 | 0.00 | 0.00 | 0.00 | 67 | 1012.5 |
| 20260508042953 | 33 | 90 | 12.9 | 16.1 | 0.00 | 0.00 | 0.00 | 64 | 1012.9 |
| 20260508042454 | 33 | 90 | 16.1 | 16.1 | 0.00 | 0.00 | 0.00 | 67 | 1012.9 |
| 20260508041953 | 33 | 0 | 11.3 | 17.7 | 0.00 | 0.00 | 0.00 | 68 | 1012.9 |
| 20260508041453 | 33 | 45 | 11.3 | 14.5 | 0.00 | 0.00 | 0.00 | 66 | 1012.9 |
| 20260508040953 | 33 | 90 | 11.3 | 19.3 | 0.00 | 0.00 | 0.00 | 66 | 1012.9 |
| 20260508040454 | 33 | 68 | 19.3 | 25.7 | 0.00 | 0.00 | 0.00 | 67 | 1012.9 |
| 20260508035954 | 33 | 45 | 4.8 | 6.4 | 0.00 | 0.00 | 0.00 | 67 | 1012.9 |
| 20260508035453 | 33 | 68 | 12.9 | 17.7 | 0.00 | 0.00 | 0.00 | 65 | 1013.2 |
| 20260508034954 | 33 | 68 | 9.7 | 11.3 | 0.00 | 0.00 | 0.00 | 68 | 1013.2 |
| 20260508034453 | 33 | 113 | 11.3 | 12.9 | 0.00 | 0.00 | 0.00 | 67 | 1013.2 |
| 20260508033953 | 33 | 68 | 6.4 | 11.3 | 0.00 | 0.00 | 0.00 | 64 | 1013.2 |
| 20260508033453 | 33 | 45 | 8.0 | 9.7 | 0.00 | 0.00 | 0.00 | 69 | 1013.2 |
| 20260508032953 | 33 | 90 | 4.8 | 6.4 | 0.00 | 0.00 | 0.00 | 68 | 1013.2 |
| 20260508032453 | 32 | 90 | 14.5 | 24.1 | 0.00 | 0.00 | 0.00 | 69 | 1013.2 |
| 20260508031954 | 32 | 90 | 11.3 | 16.1 | 0.00 | 0.00 | 0.00 | 69 | 1013.2 |
| 20260508031454 | 33 | 68 | 9.7 | 11.3 | 0.00 | 0.00 | 0.00 | 69 | 1013.2 |
| 20260508030953 | 33 | 45 | 9.7 | 16.1 | 0.00 | 0.00 | 0.00 | 68 | 1013.2 |
| 20260508030453 | 33 | 90 | 9.7 | 14.5 | 0.00 | 0.00 | 0.00 | 68 | 1013.5 |
| 20260508025953 | 34 | 23 | 4.8 | 8.0 | 0.00 | 0.00 | 0.00 | 66 | 1013.5 |
| 20260508025453 | 32 | 90 | 8.0 | 11.3 | 0.00 | 0.00 | 0.00 | 70 | 1013.5 |
| 20260508024953 | 32 | 68 | 12.9 | 16.1 | 0.00 | 0.00 | 0.00 | 69 | 1013.5 |
| 20260508024456 | 32 | 90 | 14.5 | 20.9 | 0.00 | 0.00 | 0.00 | 69 | 1013.5 |
| 20260508023953 | 32 | 45 | 14.5 | 17.7 | 0.00 | 0.00 | 0.00 | 70 | 1013.5 |
| 20260508023453 | 33 | 135 | 6.4 | 8.0 | 0.00 | 0.00 | 0.00 | 68 | 1013.5 |
| 20260508022953 | 32 | 90 | 8.0 | 11.3 | 0.00 | 0.00 | 0.00 | 70 | 1013.9 |
| 20260508022453 | 32 | 45 | 14.5 | 24.1 | 0.00 | 0.00 | 0.00 | 71 | 1013.9 |
| 20260508021954 | 32 | 68 | 9.7 | 11.3 | 0.00 | 0.00 | 0.00 | 69 | 1013.9 |
| 20260508021454 | 32 | 45 | 9.7 | 12.9 | 0.00 | 0.00 | 0.00 | 71 | 1014.2 |
| 20260508020953 | 32 | 90 | 12.9 | 17.7 | 0.00 | 0.00 | 0.00 | 71 | 1013.9 |
| 20260508020453 | 32 | 90 | 14.5 | 17.7 | 0.00 | 0.00 | 0.00 | 68 | 1013.9 |
| 20260508015953 | 32 | 45 | 14.5 | 20.9 | 0.00 | 0.00 | 0.00 | 70 | 1013.9 |
| 20260508015453 | 32 | 90 | 17.7 | 32.2 | 0.00 | 0.00 | 0.00 | 69 | 1013.9 |
| 20260508014954 | 32 | 68 | 11.3 | 16.1 | 0.00 | 0.00 | 0.00 | 69 | 1013.9 |
| 20260508014454 | 32 | 68 | 16.1 | 20.9 | 0.00 | 0.00 | 0.00 | 70 | 1014.2 |
| 20260508013953 | 32 | 45 | 9.7 | 14.5 | 0.00 | 0.00 | 0.00 | 72 | 1013.9 |
| 20260508013453 | 31 | 68 | 14.5 | 16.1 | 0.00 | 0.00 | 0.00 | 71 | 1013.9 |
| 20260508012953 | 32 | 68 | 16.1 | 20.9 | 0.00 | 0.00 | 0.00 | 70 | 1013.9 |
| 20260508012453 | 32 | 113 | 4.8 | 6.4 | 0.00 | 0.00 | 0.00 | 70 | 1013.9 |
| 20260508011954 | 31 | 90 | 11.3 | 16.1 | 0.00 | 0.00 | 0.00 | 72 | 1013.9 |
| 20260508011453 | 31 | 68 | 19.3 | 20.9 | 0.00 | 0.00 | 0.00 | 71 | 1014.2 |
| 20260508010956 | 31 | 135 | 9.7 | 12.9 | 0.00 | 0.00 | 0.00 | 73 | 1013.9 |
| 20260508010454 | 31 | 68 | 4.8 | 8.0 | 0.00 | 0.00 | 0.00 | 72 | 1013.9 |
| 20260508005954 | 31 | 45 | 11.3 | 14.5 | 0.00 | 0.00 | 0.00 | 72 | 1013.9 |
| 20260508005453 | 31 | 68 | 9.7 | 11.3 | 0.00 | 0.00 | 0.00 | 73 | 1014.2 |
| 20260508004954 | 31 | 90 | 16.1 | 24.1 | 0.00 | 0.00 | 0.00 | 72 | 1014.2 |
| 20260508004453 | 31 | 90 | 8.0 | 12.9 | 0.00 | 0.00 | 0.00 | 73 | 1013.9 |
| 20260508003954 | 31 | 45 | 14.5 | 16.1 | 0.00 | 0.00 | 0.00 | 73 | 1014.2 |
| 20260508003453 | 31 | 90 | 12.9 | 16.1 | 0.00 | 0.00 | 0.00 | 74 | 1014.2 |
| 20260508002954 | 31 | 90 | 11.3 | 16.1 | 0.00 | 0.00 | 0.00 | 74 | 1014.2 |
| 20260508002453 | 30 | 45 | 9.7 | 14.5 | 0.00 | 0.00 | 0.00 | 74 | 1014.2 |
| 20260508001954 | 31 | 68 | 12.9 | 19.3 | 0.00 | 0.00 | 0.00 | 73 | 1014.2 |
| 20260508001453 | 31 | 45 | 11.3 | 14.5 | 0.00 | 0.00 | 0.00 | 74 | 1014.2 |
| 20260508000953 | 31 | 90 | 6.4 | 12.9 | 0.00 | 0.00 | 0.00 | 74 | 1014.2 |
| 20260508000453 | 31 | 113 | 8.0 | 8.0 | 0.00 | 0.00 | 0.00 | 73 | 1013.9 |
| 20260507235954 | 31 | 45 | 8.0 | 9.7 | 0.00 | 0.00 | 0.00 | 74 | 1013.9 |
| 20260507235453 | 30 | 90 | 11.3 | 16.1 | 0.00 | 0.00 | 0.00 | 74 | 1013.9 |
| 20260507234953 | 31 | 113 | 6.4 | 9.7 | 0.00 | 0.00 | 0.00 | 73 | 1013.9 |
| 20260507234453 | 31 | 68 | 11.3 | 12.9 | 0.00 | 0.00 | 0.00 | 73 | 1013.9 |
| 20260507233953 | 30 | 68 | 9.7 | 14.5 | 0.00 | 0.00 | 0.00 | 73 | 1013.5 |
| 20260507233453 | 30 | 68 | 12.9 | 16.1 | 0.00 | 0.00 | 0.00 | 73 | 1013.9 |
| 20260507232954 | 30 | 135 | 9.7 | 12.9 | 0.00 | 0.00 | 0.00 | 73 | 1013.5 |
| 20260507232453 | 30 | 68 | 8.0 | 11.3 | 0.00 | 0.00 | 0.00 | 74 | 1013.5 |
| 20260507231953 | 30 | 90 | 9.7 | 11.3 | 0.00 | 0.00 | 0.00 | 76 | 1013.5 |
| 20260507231453 | 30 | 45 | 14.5 | 17.7 | 0.00 | 0.00 | 0.00 | 76 | 1013.5 |
| 20260507230953 | 30 | 68 | 17.7 | 20.9 | 0.00 | 0.00 | 0.00 | 75 | 1013.5 |
| 20260507230453 | 29 | 90 | 11.3 | 12.9 | 0.00 | 0.00 | 0.00 | 78 | 1013.5 |
| 20260507225953 | 29 | 68 | 11.3 | 16.1 | 0.00 | 0.00 | 0.00 | 79 | 1013.5 |
| 20260507225453 | 29 | 45 | 22.5 | 27.4 | 0.00 | 0.00 | 0.00 | 79 | 1013.5 |
| 20260507224955 | 29 | 45 | 11.3 | 14.5 | 0.00 | 0.00 | 0.00 | 79 | 1013.2 |
| 20260507224453 | 29 | 45 | 9.7 | 11.3 | 0.00 | 0.00 | 0.00 | 80 | 1013.5 |
| 20260507223953 | 28 | 45 | 9.7 | 12.9 | 0.00 | 0.00 | 0.00 | 79 | 1013.2 |
| 20260507223453 | 28 | 68 | 8.0 | 11.3 | 0.00 | 0.00 | 0.00 | 80 | 1013.2 |
| 20260507222953 | 28 | 68 | 14.5 | 17.7 | 0.00 | 0.00 | 0.00 | 80 | 1013.2 |
| 20260507222453 | 28 | 68 | 9.7 | 11.3 | 0.00 | 0.00 | 0.00 | 80 | 1013.2 |
| 20260507221953 | 28 | 68 | 9.7 | 12.9 | 0.00 | 0.00 | 0.00 | 81 | 1013.2 |
| 20260507221453 | 28 | 68 | 14.5 | 20.9 | 0.00 | 0.00 | 0.00 | 81 | 1013.2 |
| 20260507220953 | 27 | 68 | 3.2 | 3.2 | 0.00 | 0.00 | 0.00 | 83 | 1012.9 |
| 20260507220453 | 27 | 45 | 6.4 | 8.0 | 0.00 | 0.00 | 0.00 | 84 | 1012.9 |
| 20260507215953 | 27 | 135 | 1.6 | 3.2 | 0.00 | 0.00 | 0.00 | 85 | 1012.9 |
| 20260507215456 | 27 | 45 | 1.6 | 3.2 | 0.00 | 0.00 | 0.00 | 86 | 1012.9 |
| 20260507214956 | 27 | 90 | 3.2 | 4.8 | 0.00 | 0.00 | 0.00 | 85 | 1012.9 |
| 20260507214455 | 27 | 90 | 0.0 | 1.6 | 0.00 | 0.00 | 0.00 | 85 | 1012.9 |
| 20260507213953 | 27 | 68 | 1.6 | 3.2 | 0.00 | 0.00 | 0.00 | 84 | 1012.5 |
| 20260507213453 | 27 | 68 | 8.0 | 9.7 | 0.00 | 0.00 | 0.00 | 84 | 1012.5 |
| 20260507212959 | 27 | 90 | 4.8 | 6.4 | 0.00 | 0.00 | 0.00 | 84 | 1012.2 |
| 20260507212453 | 27 | 90 | 6.4 | 11.3 | 0.00 | 0.00 | 0.00 | 84 | 1012.2 |
| 20260507211954 | 27 | 68 | 6.4 | 8.0 | 0.00 | 0.00 | 0.00 | 84 | 1012.2 |
| 20260507211454 | 27 | 68 | 8.0 | 9.7 | 0.00 | 0.00 | 0.00 | 83 | 1012.5 |
| 20260507210954 | 27 | 90 | 6.4 | 8.0 | 0.00 | 0.00 | 0.00 | 83 | 1012.2 |
| 20260507210453 | 27 | 68 | 8.0 | 11.3 | 0.00 | 0.00 | 0.00 | 83 | 1012.5 |
| 20260507205954 | 27 | 68 | 9.7 | 11.3 | 0.00 | 0.00 | 0.00 | 82 | 1012.2 |
| 20260507205454 | 27 | 68 | 14.5 | 16.1 | 0.00 | 0.00 | 0.00 | 83 | 1012.5 |
| 20260507204953 | 27 | 23 | 11.3 | 14.5 | 0.00 | 0.00 | 0.00 | 84 | 1012.5 |
| 20260507204454 | 27 | 68 | 4.8 | 6.4 | 0.00 | 0.00 | 0.00 | 83 | 1012.5 |
| 20260507203953 | 27 | 90 | 12.9 | 14.5 | 0.00 | 0.00 | 0.00 | 83 | 1012.5 |
| 20260507203453 | 27 | 68 | 11.3 | 17.7 | 0.00 | 0.00 | 0.00 | 83 | 1012.2 |
| 20260507202953 | 27 | 338 | 9.7 | 11.3 | 0.00 | 0.00 | 0.00 | 83 | 1012.5 |
| 20260507202454 | 27 | 90 | 12.9 | 16.1 | 0.00 | 0.00 | 0.00 | 84 | 1012.5 |
| 20260507201953 | 27 | 45 | 8.0 | 9.7 | 0.00 | 0.00 | 0.00 | 82 | 1012.5 |
| 20260507201453 | 27 | 68 | 8.0 | 11.3 | 0.00 | 0.00 | 0.00 | 84 | 1012.2 |
| 20260507200955 | 27 | 23 | 4.8 | 8.0 | 0.00 | 0.00 | 0.00 | 84 | 1012.5 |
| 20260507200453 | 27 | 68 | 6.4 | 9.7 | 0.00 | 0.00 | 0.00 | 83 | 1012.5 |
| 20260507195953 | 27 | 45 | 4.8 | 8.0 | 0.00 | 0.00 | 0.00 | 84 | 1012.5 |
| 20260507195453 | 27 | 90 | 4.8 | 6.4 | 0.00 | 0.00 | 0.00 | 84 | 1012.2 |
| 20260507194953 | 27 | 45 | 9.7 | 11.3 | 0.00 | 0.00 | 0.00 | 85 | 1012.2 |
| 20260507194453 | 27 | 45 | 6.4 | 8.0 | 0.00 | 0.00 | 0.00 | 85 | 1012.2 |
| 20260507193953 | 27 | 23 | 8.0 | 11.3 | 0.00 | 0.00 | 0.00 | 85 | 1012.2 |
| 20260507193454 | 27 | 68 | 9.7 | 12.9 | 0.00 | 0.00 | 0.00 | 85 | 1012.2 |
| 20260507192953 | 27 | 45 | 8.0 | 11.3 | 0.00 | 0.00 | 0.00 | 85 | 1012.2 |
| 20260507192454 | 27 | 90 | 8.0 | 8.0 | 0.00 | 0.00 | 0.00 | 85 | 1012.2 |
| 20260507191953 | 27 | 23 | 8.0 | 11.3 | 0.00 | 0.00 | 0.00 | 85 | 1012.2 |
| 20260507191453 | 27 | 68 | 11.3 | 12.9 | 0.00 | 0.00 | 0.00 | 86 | 1012.2 |
| 20260507190953 | 27 | 68 | 11.3 | 16.1 | 0.00 | 0.00 | 0.00 | 86 | 1012.2 |
| 20260507190453 | 27 | 90 | 11.3 | 12.9 | 0.00 | 0.00 | 0.00 | 85 | 1012.2 |
| 20260507185953 | 27 | 68 | 9.7 | 12.9 | 0.00 | 0.00 | 0.00 | 85 | 1012.2 |
| 20260507185454 | 27 | 90 | 6.4 | 8.0 | 0.00 | 0.00 | 0.00 | 85 | 1011.9 |
| 20260507184954 | 27 | 90 | 6.4 | 9.7 | 0.00 | 0.00 | 0.00 | 86 | 1012.2 |
| 20260507184454 | 27 | 45 | 8.0 | 9.7 | 0.00 | 0.00 | 0.00 | 86 | 1012.2 |
| 20260507183953 | 27 | 68 | 9.7 | 11.3 | 0.00 | 0.00 | 0.00 | 85 | 1012.2 |
| 20260507183453 | 27 | 68 | 11.3 | 20.9 | 0.00 | 0.00 | 0.00 | 85 | 1011.9 |
| 20260507182954 | 27 | 68 | 14.5 | 20.9 | 0.00 | 0.00 | 0.00 | 85 | 1012.2 |
| 20260507182453 | 27 | 68 | 3.2 | 3.2 | 0.00 | 0.00 | 0.00 | 83 | 1012.2 |
| 20260507181953 | 27 | 68 | 8.0 | 9.7 | 0.00 | 0.00 | 0.00 | 83 | 1012.2 |
| 20260507181454 | 27 | 23 | 11.3 | 16.1 | 0.00 | 0.00 | 0.00 | 83 | 1012.5 |
| 20260507180953 | 27 | 68 | 8.0 | 9.7 | 0.00 | 0.00 | 0.00 | 83 | 1012.5 |
| 20260507180453 | 27 | 68 | 6.4 | 14.5 | 0.00 | 0.00 | 0.00 | 84 | 1012.2 |
| 20260507175953 | 27 | 68 | 3.2 | 4.8 | 0.00 | 0.00 | 0.00 | 85 | 1012.5 |
| 20260507175453 | 27 | 90 | 4.8 | 6.4 | 0.00 | 0.00 | 0.00 | 85 | 1012.5 |
| 20260507174954 | 27 | 45 | 9.7 | 11.3 | 0.00 | 0.00 | 0.00 | 84 | 1012.5 |
| 20260507174453 | 27 | 90 | 11.3 | 14.5 | 0.00 | 0.00 | 0.00 | 84 | 1012.5 |
| 20260507173953 | 27 | 68 | 9.7 | 16.1 | 0.00 | 0.00 | 0.00 | 84 | 1012.9 |
| 20260507173453 | 27 | 45 | 11.3 | 12.9 | 0.00 | 0.00 | 0.00 | 85 | 1012.5 |
| 20260507172953 | 27 | 90 | 19.3 | 25.7 | 0.00 | 0.00 | 0.00 | 85 | 1012.5 |
| 20260507172453 | 27 | 68 | 9.7 | 11.3 | 0.00 | 0.00 | 0.00 | 85 | 1012.5 |
| 20260507171953 | 27 | 68 | 8.0 | 8.0 | 0.00 | 0.00 | 0.00 | 84 | 1012.5 |
| 20260507171453 | 27 | 45 | 9.7 | 11.3 | 0.00 | 0.00 | 0.00 | 84 | 1012.2 |
| 20260507170953 | 27 | 68 | 14.5 | 16.1 | 0.00 | 0.00 | 0.00 | 84 | 1012.5 |
| 20260507170453 | 27 | 45 | 9.7 | 11.3 | 0.00 | 0.00 | 0.00 | 85 | 1012.5 |
| 20260507165953 | 27 | 338 | 14.5 | 16.1 | 0.00 | 0.00 | 0.00 | 84 | 1012.5 |
| 20260507165453 | 27 | 68 | 12.9 | 19.3 | 0.00 | 0.00 | 0.00 | 84 | 1012.5 |
| 20260507164953 | 27 | 90 | 16.1 | 20.9 | 0.00 | 0.00 | 0.00 | 84 | 1012.9 |
| 20260507164453 | 27 | 68 | 9.7 | 11.3 | 0.00 | 0.00 | 0.00 | 84 | 1012.9 |
| 20260507163954 | 27 | 68 | 11.3 | 14.5 | 0.00 | 0.00 | 0.00 | 84 | 1012.5 |
| 20260507163453 | 27 | 45 | 11.3 | 12.9 | 0.00 | 0.00 | 0.00 | 84 | 1012.5 |
| 20260507162953 | 27 | 45 | 9.7 | 12.9 | 0.00 | 0.00 | 0.00 | 83 | 1012.5 |
| 20260507162453 | 27 | 68 | 12.9 | 16.1 | 0.00 | 0.00 | 0.00 | 83 | 1012.5 |
| 20260507161953 | 27 | 90 | 8.0 | 8.0 | 0.00 | 0.00 | 0.00 | 84 | 1012.9 |
| 20260507161453 | 27 | 45 | 11.3 | 14.5 | 0.00 | 0.00 | 0.00 | 84 | 1012.9 |
| 20260507160954 | 27 | 45 | 11.3 | 12.9 | 0.00 | 0.00 | 0.00 | 84 | 1012.9 |
| 20260507160453 | 27 | 90 | 8.0 | 11.3 | 0.00 | 0.00 | 0.00 | 85 | 1012.9 |
| 20260507155953 | 27 | 68 | 8.0 | 11.3 | 0.00 | 0.00 | 0.00 | 85 | 1012.9 |
| 20260507155454 | 27 | 68 | 11.3 | 14.5 | 0.00 | 0.00 | 0.00 | 85 | 1013.2 |
| 20260507154953 | 27 | 45 | 11.3 | 14.5 | 0.00 | 0.00 | 0.00 | 84 | 1012.9 |
| 20260507154453 | 27 | 68 | 16.1 | 19.3 | 0.00 | 0.00 | 0.00 | 83 | 1012.9 |
| 20260507153954 | 27 | 113 | 6.4 | 11.3 | 0.00 | 0.00 | 0.00 | 84 | 1013.2 |
| 20260507153453 | 27 | 68 | 12.9 | 16.1 | 0.00 | 0.00 | 0.00 | 83 | 1013.2 |
| 20260507152953 | 27 | 68 | 9.7 | 12.9 | 0.00 | 0.00 | 0.00 | 84 | 1013.2 |
| 20260507152454 | 27 | 158 | 11.3 | 14.5 | 0.00 | 0.00 | 0.00 | 83 | 1013.5 |
| 20260507151954 | 27 | 90 | 4.8 | 6.4 | 0.00 | 0.00 | 0.00 | 83 | 1013.2 |
| 20260507151454 | 27 | 68 | 11.3 | 16.1 | 0.00 | 0.00 | 0.00 | 83 | 1013.5 |
| 20260507150953 | 27 | 68 | 9.7 | 11.3 | 0.00 | 0.00 | 0.00 | 83 | 1013.5 |
| 20260507150453 | 27 | 45 | 4.8 | 8.0 | 0.00 | 0.00 | 0.00 | 83 | 1013.5 |
| 20260507145954 | 27 | 68 | 8.0 | 11.3 | 0.00 | 0.00 | 0.00 | 82 | 1013.2 |
| 20260507145453 | 27 | 68 | 9.7 | 14.5 | 0.00 | 0.00 | 0.00 | 82 | 1013.5 |
| 20260507144954 | 27 | 68 | 11.3 | 14.5 | 0.00 | 0.00 | 0.00 | 83 | 1013.5 |
| 20260507144453 | 27 | 68 | 9.7 | 11.3 | 0.00 | 0.00 | 0.00 | 83 | 1013.5 |
| 20260507143955 | 27 | 68 | 3.2 | 3.2 | 0.00 | 0.00 | 0.00 | 84 | 1013.9 |
| 20260507143453 | 27 | 90 | 11.3 | 16.1 | 0.00 | 0.00 | 0.00 | 83 | 1013.5 |
| 20260507142954 | 27 | 68 | 3.2 | 4.8 | 0.00 | 0.00 | 0.00 | 83 | 1013.9 |
| 20260507142453 | 28 | 68 | 11.3 | 14.5 | 0.00 | 0.00 | 0.00 | 82 | 1013.9 |
| 20260507141953 | 28 | 68 | 9.7 | 14.5 | 0.00 | 0.00 | 0.00 | 80 | 1013.9 |
| 20260507141454 | 28 | 45 | 11.3 | 14.5 | 0.00 | 0.00 | 0.00 | 82 | 1013.9 |
| 20260507140954 | 28 | 68 | 12.9 | 16.1 | 0.00 | 0.00 | 0.00 | 82 | 1013.9 |
| 20260507140453 | 28 | 68 | 11.3 | 22.5 | 0.00 | 0.00 | 0.00 | 81 | 1013.5 |
| 20260507135953 | 28 | 68 | 12.9 | 16.1 | 0.00 | 0.00 | 0.00 | 80 | 1013.9 |
| 20260507135453 | 28 | 45 | 14.5 | 17.7 | 0.00 | 0.00 | 0.00 | 81 | 1013.9 |
| 20260507134954 | 28 | 45 | 14.5 | 19.3 | 0.00 | 0.00 | 0.00 | 81 | 1013.5 |
| 20260507134453 | 28 | 68 | 12.9 | 16.1 | 0.00 | 0.00 | 0.00 | 82 | 1013.9 |
| 20260507133955 | 28 | 90 | 11.3 | 12.9 | 0.00 | 0.00 | 0.00 | 82 | 1013.9 |
| 20260507133453 | 28 | 90 | 9.7 | 11.3 | 0.00 | 0.00 | 0.00 | 82 | 1013.5 |
| 20260507132953 | 28 | 45 | 4.8 | 11.3 | 0.00 | 0.00 | 0.00 | 82 | 1013.5 |
| 20260507132453 | 28 | 68 | 11.3 | 14.5 | 0.00 | 0.00 | 0.00 | 83 | 1013.5 |
| 20260507131953 | 28 | 90 | 9.7 | 12.9 | 0.00 | 0.00 | 0.00 | 82 | 1013.2 |
| 20260507131453 | 28 | 45 | 11.3 | 16.1 | 0.00 | 0.00 | 0.00 | 83 | 1013.2 |
| 20260507130954 | 28 | 68 | 4.8 | 6.4 | 0.00 | 0.00 | 0.00 | 83 | 1013.2 |
| 20260507130454 | 27 | 68 | 8.0 | 8.0 | 0.00 | 0.00 | 0.00 | 83 | 1013.2 |
| 20260507125953 | 28 | 90 | 8.0 | 12.9 | 0.00 | 0.00 | 0.00 | 84 | 1013.2 |